createdAt,value
2018-11-25T06:37:46.702Z,47.78
2018-11-25T06:40:44.560Z,45.50
2018-11-25T06:43:40.897Z,45.65
2018-11-25T06:46:44.426Z,44.18
2018-11-25T06:49:46.055Z,42.20
2018-11-25T06:52:50.772Z,44.53
2018-11-25T06:55:55.760Z,40.45
2018-11-25T06:58:56.619Z,43.85
2018-11-25T07:02:04.373Z,43.55
2018-11-25T07:05:00.611Z,44.35
2018-11-25T07:07:56.557Z,41.37
2018-11-25T07:10:52.983Z,38.85
2018-11-25T07:13:48.810Z,40.48
2018-11-25T07:16:45.190Z,41.15
2018-11-25T07:19:41.167Z,40.75
2018-11-25T07:22:37.168Z,43.68
2018-11-25T07:25:33.224Z,38.42
2018-11-25T07:28:29.286Z,40.35
2018-11-25T07:31:25.585Z,42.78
2018-11-25T07:34:21.978Z,39.05
2018-11-25T07:37:18.388Z,43.13
2018-11-25T07:40:19.246Z,38.90
2018-11-25T07:43:15.725Z,40.03
2018-11-25T07:46:12.034Z,37.03
2018-11-25T07:49:08.817Z,40.12
2018-11-25T07:52:05.215Z,37.38
2018-11-25T07:55:05.748Z,36.70
2018-11-25T07:58:02.630Z,36.45
2018-11-25T08:00:58.885Z,39.80
2018-11-25T08:03:54.841Z,35.28
2018-11-25T08:06:51.201Z,40.03
2018-11-25T08:09:50.860Z,38.53
2018-11-25T08:12:46.912Z,37.55
2018-11-25T08:15:43.176Z,41.02
2018-11-25T08:18:39.081Z,35.70
2018-11-25T08:21:35.913Z,39.80
2018-11-25T08:24:32.697Z,39.83
2018-11-25T08:27:29.518Z,35.48
2018-11-25T08:30:27.830Z,36.88
2018-11-25T08:33:24.917Z,35.20
2018-11-25T08:36:22.790Z,33.10
2018-11-25T08:39:19.019Z,35.23
2018-11-25T08:42:15.838Z,34.80
2018-11-25T08:45:13.599Z,35.40
2018-11-25T08:48:09.656Z,33.98
2018-11-25T08:51:05.909Z,36.63
2018-11-25T08:54:02.001Z,37.58
2018-11-25T08:56:58.540Z,34.10
2018-11-25T08:59:54.880Z,33.85
2018-11-25T09:02:51.228Z,34.33
2018-11-25T09:05:47.799Z,36.33
2018-11-25T09:08:44.305Z,33.42
2018-11-25T09:11:40.715Z,30.50
2018-11-25T09:14:37.105Z,33.30
2018-11-25T09:17:33.382Z,33.25
2018-11-25T09:20:30.365Z,31.07
2018-11-25T09:23:26.383Z,33.55
2018-11-25T09:26:22.683Z,30.82
2018-11-25T09:29:18.767Z,34.48
2018-11-25T09:32:22.732Z,35.25
2018-11-25T09:35:12.659Z,35.60
2018-11-25T09:38:09.211Z,32.85
2018-11-25T09:41:05.787Z,29.35
2018-11-25T09:44:03.093Z,29.57
2018-11-25T09:47:00.399Z,29.18
2018-11-25T09:49:57.011Z,32.00
2018-11-25T09:52:53.846Z,29.40
2018-11-25T09:55:50.148Z,30.30
2018-11-25T09:58:46.844Z,30.10
2018-11-25T10:01:43.558Z,29.90
2018-11-25T10:04:40.180Z,30.97
2018-11-25T10:07:36.506Z,28.92
2018-11-25T10:10:33.300Z,28.65
2018-11-25T10:13:29.811Z,30.15
2018-11-25T10:16:27.038Z,30.92
2018-11-25T10:19:23.222Z,27.58
2018-11-25T10:22:19.535Z,28.87
2018-11-25T10:25:20.238Z,29.12
2018-11-25T10:28:16.365Z,28.62
2018-11-25T10:31:13.130Z,31.75
2018-11-25T10:34:09.395Z,32.08
2018-11-25T10:37:05.343Z,27.37
2018-11-25T10:40:02.553Z,28.10
2018-11-25T10:42:58.630Z,28.62
2018-11-25T10:45:55.258Z,29.57
2018-11-25T10:48:51.726Z,26.68
2018-11-25T10:51:48.099Z,29.48
2018-11-25T10:54:44.266Z,27.52
2018-11-25T10:57:40.381Z,27.30
2018-11-25T11:00:54.242Z,29.18
2018-11-25T11:04:00.852Z,29.12
2018-11-25T11:07:13.639Z,25.08
2018-11-25T11:10:13.783Z,26.27
2018-11-25T11:13:10.582Z,30.08
2018-11-25T11:16:06.932Z,25.30
2018-11-25T11:19:03.140Z,27.48
2018-11-25T11:21:59.375Z,27.82
2018-11-25T11:24:55.983Z,27.37
2018-11-25T11:27:52.163Z,27.25
2018-11-25T11:30:48.278Z,26.45
2018-11-25T11:33:44.492Z,26.80
2018-11-25T11:36:40.639Z,27.62
2018-11-25T11:39:38.074Z,25.37
2018-11-25T11:42:35.055Z,25.68
2018-11-25T11:45:31.176Z,26.80
2018-11-25T11:48:28.169Z,28.65
2018-11-25T11:51:25.664Z,27.40
2018-11-25T11:54:20.891Z,27.27
2018-11-25T11:57:17.113Z,26.68
2018-11-25T12:00:33.350Z,25.65
2018-11-25T12:03:29.403Z,26.45
2018-11-25T12:06:25.769Z,23.90
2018-11-25T12:09:22.744Z,23.52
2018-11-25T12:12:19.214Z,25.35
2018-11-25T12:15:35.510Z,24.85
2018-11-25T12:18:31.738Z,24.82
2018-11-25T12:21:27.714Z,28.45
2018-11-25T12:24:24.065Z,25.65
2018-11-25T12:27:20.438Z,23.92
2018-11-25T12:30:20.675Z,24.50
2018-11-25T12:33:17.417Z,23.70
2018-11-25T12:36:14.054Z,24.85
2018-11-25T12:39:12.452Z,24.60
2018-11-25T12:42:08.829Z,25.40
2018-11-25T12:45:05.184Z,24.43
2018-11-25T12:48:01.762Z,25.10
2018-11-25T12:50:57.947Z,25.77
2018-11-25T12:53:53.997Z,24.95
2018-11-25T12:56:51.781Z,25.92
2018-11-25T12:59:46.459Z,30.15
2018-11-25T13:02:46.217Z,25.70
2018-11-25T13:05:46.267Z,28.85
2018-11-25T13:08:39.868Z,30.72
2018-11-25T13:11:35.806Z,26.25
2018-11-25T13:14:32.186Z,27.75
2018-11-25T13:17:28.769Z,28.55
2018-11-25T13:20:25.602Z,26.30
2018-11-25T13:23:22.107Z,28.40
2018-11-25T13:26:18.287Z,28.42
2018-11-25T13:29:14.858Z,26.97
2018-11-25T13:32:10.694Z,30.02
2018-11-25T13:35:07.127Z,27.35
2018-11-25T13:38:04.008Z,29.57
2018-11-25T13:41:01.639Z,30.45
2018-11-25T13:43:58.235Z,26.05
2018-11-25T13:46:54.814Z,27.45
2018-11-25T13:49:51.519Z,30.12
2018-11-25T13:52:47.788Z,30.05
2018-11-25T13:55:43.737Z,29.10
2018-11-25T13:58:40.194Z,29.15
2018-11-25T14:01:37.147Z,27.65
2018-11-25T14:04:33.166Z,26.70
2018-11-25T14:07:29.684Z,31.02
2018-11-25T14:10:30.715Z,38.50
2018-11-25T14:13:26.795Z,52.93
2018-11-25T14:16:25.072Z,80.77
2018-11-25T14:19:21.234Z,61.30
2018-11-25T14:22:17.670Z,75.62
2018-11-25T14:25:18.633Z,57.60
2018-11-25T14:28:16.980Z,55.75
2018-11-25T14:31:13.323Z,59.98
2018-11-25T14:34:09.997Z,55.85
2018-11-25T14:37:06.444Z,55.40
2018-11-25T14:40:02.524Z,60.15
2018-11-25T14:42:59.061Z,64.62
2018-11-25T14:45:54.967Z,77.08
2018-11-25T14:48:50.977Z,73.42
2018-11-25T14:51:47.083Z,64.12
2018-11-25T14:54:50.958Z,68.52
2018-11-25T14:57:39.155Z,62.00
2018-11-25T15:00:35.060Z,56.80
2018-11-25T15:03:31.165Z,66.28
2018-11-25T15:06:29.493Z,65.70
2018-11-25T15:09:23.873Z,68.00
2018-11-25T15:12:19.911Z,64.37
2018-11-25T15:15:17.820Z,72.00
2018-11-25T15:18:14.341Z,72.15
2018-11-25T15:21:11.059Z,65.62
2018-11-25T15:24:08.401Z,62.08
2018-11-25T15:27:05.188Z,64.87
2018-11-25T15:30:01.592Z,63.50
2018-11-25T15:32:58.049Z,70.40
2018-11-25T15:35:54.214Z,69.40
2018-11-25T15:38:50.369Z,69.53
2018-11-25T15:41:47.171Z,67.32
2018-11-25T15:44:43.759Z,70.47
2018-11-25T15:47:40.760Z,72.80
2018-11-25T15:50:37.390Z,74.58
2018-11-25T15:53:34.012Z,73.65
2018-11-25T15:56:31.851Z,73.95
2018-11-25T15:59:27.672Z,77.08
2018-11-25T16:02:24.251Z,71.02
2018-11-25T16:05:24.725Z,71.53
2018-11-25T16:08:21.352Z,79.77
2018-11-25T16:11:18.182Z,72.90
2018-11-25T16:14:14.363Z,69.27
2018-11-25T16:17:10.647Z,71.62
2018-11-25T16:20:07.009Z,67.92
2018-11-25T16:23:13.841Z,71.62
2018-11-25T16:26:13.870Z,71.05
2018-11-25T16:29:18.342Z,64.22
2018-11-25T16:32:14.970Z,69.25
2018-11-25T16:35:14.871Z,72.25
2018-11-25T16:38:11.481Z,69.47
2018-11-25T16:41:08.076Z,70.92
2018-11-25T16:44:04.620Z,66.12
2018-11-25T16:47:01.246Z,63.92
2018-11-25T16:49:58.337Z,65.35
2018-11-25T16:52:55.362Z,64.90
2018-11-25T16:55:51.661Z,59.40
2018-11-25T16:58:48.130Z,67.85
2018-11-25T17:01:44.967Z,70.83
2018-11-25T17:04:42.111Z,66.37
2018-11-25T17:07:38.525Z,66.75
2018-11-25T17:10:35.283Z,60.83
2018-11-25T17:13:31.828Z,66.07
2018-11-25T17:16:36.787Z,69.62
2018-11-25T17:19:34.366Z,67.87
2018-11-25T17:22:34.075Z,67.00
2018-11-25T17:25:27.436Z,67.08
2018-11-25T17:28:23.677Z,61.53
2018-11-25T17:31:19.740Z,69.87
2018-11-25T17:34:15.987Z,66.87
2018-11-25T17:37:12.521Z,67.25
2018-11-25T17:40:08.666Z,67.03
2018-11-25T17:43:04.736Z,63.58
2018-11-25T17:46:04.112Z,67.60
2018-11-25T17:48:59.870Z,63.15
2018-11-25T17:52:00.237Z,64.40
2018-11-25T17:54:56.386Z,58.17
2018-11-25T17:57:55.135Z,58.33
2018-11-25T18:01:04.846Z,64.30
2018-11-25T18:04:04.583Z,64.42
2018-11-25T18:07:00.578Z,57.33
2018-11-25T18:09:56.951Z,60.03
2018-11-25T18:12:53.752Z,66.40
2018-11-25T18:15:53.988Z,68.95
2018-11-25T18:19:24.368Z,56.18
2018-11-25T18:22:23.877Z,60.05
2018-11-25T18:25:23.331Z,58.50
2018-11-25T18:28:16.957Z,65.22
2018-11-25T18:31:14.071Z,66.05
2018-11-25T18:34:10.717Z,69.95
2018-11-25T18:37:07.546Z,63.55
2018-11-25T18:40:03.791Z,60.08
2018-11-25T18:43:00.247Z,55.95
2018-11-25T18:46:01.174Z,56.42
2018-11-25T18:48:57.902Z,60.75
2018-11-25T18:51:54.301Z,62.60
2018-11-25T18:54:52.325Z,60.15
2018-11-25T18:57:50.199Z,62.17
2018-11-25T19:00:55.264Z,57.48
2018-11-25T19:03:52.288Z,62.35
2018-11-25T19:06:48.362Z,60.33
2018-11-25T19:09:44.360Z,54.40
2018-11-25T19:12:44.365Z,66.90
2018-11-25T19:15:37.390Z,58.42
2018-11-25T19:18:33.642Z,60.03
2018-11-25T19:21:33.063Z,57.73
2018-11-25T19:24:29.283Z,56.50
2018-11-25T19:27:25.725Z,58.80
2018-11-25T19:30:26.710Z,61.08
2018-11-25T19:33:18.720Z,57.45
2018-11-25T19:36:15.269Z,54.48
2018-11-25T19:39:13.363Z,57.27
2018-11-25T19:42:10.296Z,61.05
2018-11-25T19:45:09.917Z,56.53
2018-11-25T19:48:06.593Z,50.75
2018-11-25T19:51:02.912Z,56.08
2018-11-25T19:53:59.288Z,51.45
2018-11-25T19:56:58.571Z,53.40
2018-11-25T19:59:54.936Z,59.08
2018-11-25T20:02:51.966Z,61.15
2018-11-25T20:05:48.430Z,55.48
2018-11-25T20:08:44.947Z,54.03
2018-11-25T20:11:41.792Z,55.40
2018-11-25T20:14:37.963Z,56.00
2018-11-25T20:17:34.956Z,53.52
2018-11-25T20:20:32.027Z,58.17
2018-11-25T20:23:28.181Z,56.75
2018-11-25T20:26:24.422Z,55.15
2018-11-25T20:29:23.865Z,54.38
2018-11-25T20:32:36.506Z,51.55
2018-11-25T20:35:33.361Z,52.93
2018-11-25T20:38:46.314Z,53.75
2018-11-25T20:41:42.650Z,55.45
2018-11-25T20:44:39.621Z,52.85
2018-11-25T20:47:39.534Z,53.42
2018-11-25T20:50:35.741Z,55.90
2018-11-25T20:53:48.647Z,51.68
2018-11-25T20:56:44.949Z,49.10
2018-11-25T20:59:41.273Z,57.15
2018-11-25T21:02:38.289Z,52.60
2018-11-25T21:05:34.450Z,52.50
2018-11-25T21:08:30.805Z,58.95
2018-11-25T21:11:27.460Z,59.63
2018-11-25T21:14:23.717Z,62.43
2018-11-25T21:17:19.956Z,68.25
2018-11-25T21:20:23.014Z,63.92
2018-11-25T21:23:19.047Z,64.55
2018-11-25T21:26:16.017Z,63.10
2018-11-25T21:29:12.636Z,67.58
2018-11-25T21:32:09.012Z,65.57
2018-11-25T21:35:05.993Z,69.45
2018-11-25T21:38:02.696Z,71.42
2018-11-25T21:40:59.163Z,62.95
2018-11-25T21:43:55.082Z,68.10
2018-11-25T21:46:51.201Z,67.42
2018-11-25T21:49:51.368Z,72.72
2018-11-25T21:52:47.904Z,70.60
2018-11-25T21:55:44.347Z,68.72
2018-11-25T21:58:40.938Z,70.08
2018-11-25T22:01:40.507Z,68.90
2018-11-25T22:04:36.864Z,74.87
2018-11-25T22:07:33.054Z,81.22
2018-11-25T22:10:33.380Z,85.75
2018-11-25T22:13:26.654Z,80.10
2018-11-25T22:16:23.187Z,76.33
2018-11-25T22:19:18.996Z,85.60
2018-11-25T22:22:15.202Z,89.40
2018-11-25T22:25:16.053Z,85.03
2018-11-25T22:28:14.752Z,76.97
2018-11-25T22:31:08.736Z,84.15
2018-11-25T22:34:04.934Z,88.87
2018-11-25T22:37:01.270Z,87.33
2018-11-25T22:39:57.445Z,85.15
2018-11-25T22:42:56.680Z,88.55
2018-11-25T22:45:52.940Z,82.90
2018-11-25T22:48:48.891Z,84.62
2018-11-25T22:51:45.120Z,88.78
2018-11-25T22:54:41.572Z,83.85
2018-11-25T22:57:37.901Z,85.95
2018-11-25T23:00:41.221Z,90.57
2018-11-25T23:03:37.602Z,92.37
2018-11-25T23:07:19.126Z,88.95
2018-11-25T23:10:15.453Z,89.05
2018-11-25T23:13:12.063Z,88.40
2018-11-25T23:16:08.297Z,89.83
2018-11-25T23:19:04.500Z,99.32
2018-11-25T23:22:00.665Z,92.97
2018-11-25T23:24:57.255Z,91.02
2018-11-25T23:27:53.929Z,93.80
2018-11-25T23:30:50.928Z,96.75
2018-11-25T23:33:49.272Z,87.55
2018-11-25T23:36:45.606Z,99.25
2018-11-25T23:39:41.851Z,101.00
2018-11-25T23:42:38.120Z,88.47
2018-11-25T23:45:34.739Z,95.38
2018-11-25T23:48:31.550Z,94.72
2018-11-25T23:51:30.241Z,93.33
2018-11-25T23:54:26.498Z,91.55
2018-11-25T23:57:23.234Z,94.83
